Flight Track Log - Related Links

Times and Time Zones

All times are in EDT time to prevent confusion due to time zone crossing. See the N830QS flight status page for this flight to view local times or setup timezone preferences in your user account.


Time Position Orientation Groundspeed Altitude Reporting Facility
EDT Latitude Longitude Course Direction KTS MPH feet Rate Location/Type
Thu 03:11:59 PM 27.9833 -82.5333 25° Northeast 164 189 800  Level Tampa TRACON
Thu 03:13:32 PM 28.0564 -82.4956 25° Northeast 221 254 7,200 4,000 Climbing Miami Center
Thu 03:14:32 PM 28.0000 -82.4481 143° Southeast 120 138 11,000 2,400 Climbing Miami Center
Thu 03:15:32 PM 27.9175 -82.4206 164° South 224 258 12,000 1,250 Climbing Miami Center
Thu 03:16:32 PM 27.8228 -82.3925 165° South 298 343 13,500 1,000 Climbing Miami Center
Thu 03:17:32 PM 27.7256 -82.3667 167° South 328 377 14,000 1,050 Climbing Miami Center
Thu 03:18:32 PM 27.6286 -82.3386 166° South 353 406 15,600 1,700 Climbing Miami Center
Thu 03:19:32 PM 27.5300 -82.3011 161° South 369 425 17,400 1,650 Climbing Miami Center
Thu 03:20:32 PM 27.4311 -82.2636 161° South 385 443 18,900 800 Climbing Miami Center
Thu 03:21:32 PM 27.3436 -82.2033 149° Southeast 392 451 19,000 50 Climbing Miami Center
Thu 03:22:32 PM 27.2519 -82.1408 149° Southeast 392 451 19,000  Level Miami Center
Thu 03:23:32 PM 27.1483 -82.0661 147° Southeast 398 458 19,000  Level Miami Center
Thu 03:24:32 PM 27.0567 -81.9992 147° Southeast 398 458 19,000  Level Miami Center
Thu 03:25:32 PM 26.9753 -81.9397 147° Southeast 393 452 19,000  Level Miami Center
Thu 03:26:32 PM 26.8883 -81.8589 140° Southeast 399 459 19,000  Level Miami Center
Thu 03:27:32 PM 26.8056 -81.7833 141° Southeast 399 459 19,000  Level Miami Center
Thu 03:28:32 PM 26.7225 -81.7078 141° Southeast 394 453 19,000  Level Miami Center
Thu 03:29:32 PM 26.6269 -81.6225 141° Southeast 394 453 19,000  Level Miami Center
Thu 03:30:32 PM 26.5500 -81.5544 142° Southeast 394 453 19,000 -450 Level Miami Center
Thu 03:31:32 PM 26.4669 -81.4769 140° Southeast 394 453 18,100 -1,300 Descending Miami Center
Thu 03:32:32 PM 26.3642 -81.4242 155° Southeast 373 429 16,400 -1,600 Descending Miami Center
Thu 03:33:32 PM 26.2692 -81.3858 160° South 373 429 14,900 -1,500 Descending Miami Center
Thu 03:34:32 PM 26.1722 -81.3450 159° South 365 420 13,400 -1,500 Descending Miami Center
Thu 03:35:32 PM 26.0756 -81.3044 159° South 365 420 11,900 -1,200 Descending Miami Center
Thu 03:36:32 PM 25.9806 -81.2664 160° South 365 420 11,000 -500 Descending Miami Center
Thu 03:37:32 PM 25.9197 -81.2086 139° Southeast 328 377 10,900 -550 Descending Miami Center
Thu 03:38:32 PM 25.9411 -81.1125 76° East 261 300 9,900 -730 Descending Miami Center
Thu 03:38:46 PM 25.9483 -81.0850 74° East 321 369 10,000 -1,000 Climbing Miami Center
Thu 03:39:32 PM 25.9708 -81.0233 68° East 270 311 8,900 -1,588 Descending Miami Center
Thu 03:39:54 PM 25.9531 -80.9881 119° Southeast 296 341 8,200 -1,000 Descending Miami Center
Thu 03:40:32 PM 25.9183 -80.9639 148° Southeast 263 303 7,900 -176 Descending Miami Center
Thu 03:41:02 PM 25.8833 -80.9419 151° Southeast 246 283 8,000  Climbing Miami Center
Thu 03:41:32 PM 25.8761 -80.9092 104° East 244 281 7,900 -1,082 Descending Miami Center
Thu 03:42:03 PM 25.8667 -80.8675 104° East 250 288 6,900 -1,400 Descending Miami Center
Thu 03:42:32 PM 25.8656 -80.8350 92° East 233 268 6,500 -806 Descending Miami Center
Thu 03:43:10 PM 25.8583 -80.7886 100° East 219 252 6,000 -900 Descending Miami Center
Thu 03:43:32 PM 25.8569 -80.7633 93° East 228 262 5,600 -1,279 Descending Miami Center
Thu 03:44:11 PM 25.8497 -80.7236 101° East 209 241 4,700 -1,400 Descending Miami Center
Thu 03:44:32 PM 25.8503 -80.7006 88° East 216 249 4,200 -1,179 Descending Miami Center
Thu 03:45:07 PM 25.8428 -80.6658 103° East 200 230 3,600 -1,100 Descending Miami Center
Thu 03:45:32 PM 25.8414 -80.6403 93° East 211 243 3,100 -590 Descending Miami Center
Thu 03:46:08 PM 25.8339 -80.6056 103° East 200 230 3,000 -200 Descending Miami Center
Thu 03:46:32 PM 25.8325 -80.5778 93° East 200 230 2,900  Descending Miami Center
Thu 03:47:09 PM 25.8167 -80.5450 118° Southeast 193 222 3,000  Climbing Miami Center
Thu 03:47:32 PM 25.8153 -80.5219 94° East 200 230 2,900  Descending Miami Center
Thu 03:48:22 PM 25.7994 -80.4775 112° Southeast 194 223 3,000  Climbing Miami Center
Thu 03:48:32 PM 25.7997 -80.4661 88° East 200 230 2,900 -122 Descending Miami Center
Thu 03:49:11 PM 25.7944 -80.4336 100° East 178 205 2,900 -894 Level Miami Center
Thu 03:50:06 PM 25.7956 -80.3828 89° East 163 188 1,500 -1,128 Descending Miami Center
Thu 03:51:08 PM 25.7986 -80.3414 85° East 123 142 700 -683 Descending Miami Center
Thu 03:52:09 PM 25.7994 -80.3067 88° East 110 127 100 -590 Descending Miami Center
Thu 03:54:00 PM 25.7954 -80.2901 20° North  Level Estimated

Login

Don't have an account? Register now (free) for customized features, flight alerts, and more!